KAFN/AFN METAR and TAF weather

Enter ICAO airport designator
Station Type Date Time Source
KAFN METAR 2021/09/27 06:52 UTC NOAA

KAFN 270652Z AUTO 20005KT 10SM CLR 11/08 A2993 RMK AO2 SLP139 T01110083


Station Type Date Time Source
KAFN Decoded METAR 2021/09/27 06:52 UTC NOAA

JAFFREY MUNI-SILVER RANCH, NH, United States (KAFN) 42-48N 72-00W 313M
Sep 27, 2021 - 02:52 AM EDT / 2021.09.27 0652 UTC
Wind: from the SSW (200 degrees) at 6 MPH (5 KT):0
Visibility: 10 mile(s):0
Sky conditions: clear
Temperature: 52.0 F (11.1 C)
Dew Point: 46.9 F (8.3 C)
Relative Humidity: 82%
Pressure (altimeter): 29.93 in. Hg (1013 hPa)
ob: KAFN 270652Z AUTO 20005KT 10SM CLR 11/08 A2993 RMK AO2 SLP139 T01110083
cycle: 7

Station Type Date Time Source
KAFN TAF UTC NOAA

Error!

Example: see airport list